Time;durP1;ratioP1;P1;durP2;ratioP2;P2;SDS_P1;SDS_P2;PMS_P1;PMS_P2;Temp;Humidity;BMP_temperature;BMP_pressure;BME280_temperature;BME280_humidity;BME280_pressure;Samples;Min_cycle;Max_cycle;Signal;HPM_P1;HPM_P2
2022/10/10 00:00:51;;;;;;;24.00;17.10;;;;;;;3.13;77.02;100901.92;215851;1273;141166;-66
2022/10/10 00:06:06;;;;;;;25.00;16.70;;;;;;;3.18;76.60;100900.60;216010;1273;141529;-64
2022/10/10 00:11:11;;;;;;;22.70;15.00;;;;;;;3.23;76.55;100893.41;215914;1273;141720;-64
2022/10/10 00:16:18;;;;;;;28.30;17.10;;;;;;;3.21;76.57;100881.27;215941;1273;141343;-64
2022/10/10 00:21:23;;;;;;;21.40;14.70;;;;;;;3.24;76.97;100871.67;215784;1273;141359;-65
2022/10/10 00:26:27;;;;;;;22.10;17.00;;;;;;;3.24;77.11;100873.30;216090;1273;140196;-64
2022/10/10 00:31:34;;;;;;;31.30;15.20;;;;;;;3.25;76.46;100866.64;215280;1273;164710;-62
2022/10/10 00:36:39;;;;;;;21.30;15.30;;;;;;;3.21;76.52;100869.10;215861;1273;140959;-62
2022/10/10 00:41:43;;;;;;;21.70;14.30;;;;;;;3.15;76.29;100867.68;215756;1273;141181;-62
2022/10/10 00:46:47;;;;;;;22.60;14.90;;;;;;;3.06;76.10;100868.24;216034;1273;140057;-62
2022/10/10 00:51:58;;;;;;;23.60;15.00;;;;;;;2.97;76.72;100877.93;216002;1273;142085;-62
2022/10/10 00:57:07;;;;;;;16.50;12.30;;;;;;;3.00;77.11;100872.25;215750;1273;140644;-64
2022/10/10 01:02:12;;;;;;;21.50;15.40;;;;;;;3.09;76.90;100875.04;215751;1273;140506;-62
2022/10/10 01:07:21;;;;;;;17.10;12.00;;;;;;;3.14;77.02;100870.05;215743;1273;140610;-62
2022/10/10 01:12:48;;;;;;;21.80;13.20;;;;;;;3.14;77.42;100869.86;215781;1274;140697;-62
2022/10/10 01:18:13;;;;;;;16.80;11.20;;;;;;;3.20;77.65;100863.62;215048;1273;139702;-61
2022/10/10 01:23:56;;;;;;;17.40;12.60;;;;;;;3.31;77.35;100864.56;214887;1273;140590;-62
2022/10/10 01:29:17;;;;;;;18.00;11.90;;;;;;;3.38;77.78;100858.23;214865;1273;140100;-62
2022/10/10 01:34:49;;;;;;;17.00;10.90;;;;;;;3.37;77.47;100856.42;216029;1273;139919;-64
2022/10/10 01:40:17;;;;;;;15.60;11.30;;;;;;;3.41;77.98;100858.08;215963;1273;141366;-64
2022/10/10 01:45:23;;;;;;;20.20;11.70;;;;;;;3.54;78.34;100847.08;215820;1273;141747;-65
2022/10/10 01:50:28;;;;;;;14.30;11.00;;;;;;;3.67;78.42;100836.70;216046;1273;142976;-64
2022/10/10 01:56:07;;;;;;;19.40;11.80;;;;;;;3.68;78.23;100836.15;215888;1273;142146;-63
2022/10/10 02:01:17;;;;;;;13.30;10.10;;;;;;;3.64;78.10;100823.48;215650;1273;142174;-65
2022/10/10 02:06:33;;;;;;;17.60;9.80;;;;;;;3.60;77.93;100824.13;215865;1274;141307;-64
2022/10/10 02:11:40;;;;;;;16.20;10.70;;;;;;;3.60;77.95;100823.58;215900;1273;140468;-64
2022/10/10 02:16:48;;;;;;;14.90;10.90;;;;;;;3.57;77.72;100821.62;215985;1273;140940;-64
2022/10/10 02:21:54;;;;;;;14.70;11.20;;;;;;;3.42;77.52;100825.08;215817;1273;140863;-64
2022/10/10 02:27:22;;;;;;;27.40;11.20;;;;;;;3.33;77.45;100822.64;215869;1273;140379;-64
2022/10/10 02:32:41;;;;;;;11.20;9.60;;;;;;;3.31;77.78;100822.10;216220;1273;140430;-64
2022/10/10 02:37:47;;;;;;;12.60;9.90;;;;;;;3.40;77.86;100814.09;215934;1273;142049;-64
2022/10/10 02:42:52;;;;;;;14.90;10.90;;;;;;;3.43;77.76;100812.77;215954;1273;140114;-64
2022/10/10 02:47:57;;;;;;;13.70;10.50;;;;;;;3.42;77.83;100807.05;215914;1273;141424;-61
2022/10/10 02:53:01;;;;;;;13.80;9.80;;;;;;;3.39;77.95;100813.66;215910;1273;142234;-62
2022/10/10 02:58:05;;;;;;;19.20;11.20;;;;;;;3.43;77.80;100810.27;215739;1273;140853;-63
2022/10/10 03:03:09;;;;;;;18.80;12.20;;;;;;;3.49;78.19;100805.22;215745;1274;140402;-62
2022/10/10 03:08:14;;;;;;;17.70;11.00;;;;;;;3.57;78.69;100800.85;216119;1273;141188;-62
2022/10/10 03:13:18;;;;;;;21.90;12.50;;;;;;;3.59;78.65;100790.11;216016;1273;139353;-62
2022/10/10 03:18:22;;;;;;;19.70;12.60;;;;;;;3.71;79.00;100781.80;215833;1272;139821;-62
2022/10/10 03:23:27;;;;;;;24.70;14.80;;;;;;;3.82;79.14;100775.02;215196;1273;140907;-61
2022/10/10 03:28:31;;;;;;;19.20;13.00;;;;;;;3.91;79.64;100772.28;215928;1274;140562;-61
2022/10/10 03:33:35;;;;;;;20.00;11.40;;;;;;;3.99;79.57;100762.60;215657;1273;141252;-63
2022/10/10 03:38:40;;;;;;;20.10;12.10;;;;;;;4.04;79.50;100760.94;216022;1274;140356;-64
2022/10/10 03:43:43;;;;;;;21.00;12.10;;;;;;;4.12;79.74;100765.48;216133;1273;140524;-64
2022/10/10 03:48:47;;;;;;;16.20;11.20;;;;;;;4.15;79.72;100764.73;215958;1274;141425;-64
2022/10/10 03:53:53;;;;;;;16.90;11.20;;;;;;;4.08;79.57;100753.48;215887;1274;140030;-63
2022/10/10 03:58:59;;;;;;;18.50;11.20;;;;;;;4.11;79.79;100752.98;215872;1273;140359;-63
2022/10/10 04:04:04;;;;;;;13.70;11.60;;;;;;;4.14;79.82;100752.30;215909;1274;140357;-63
2022/10/10 04:09:08;;;;;;;16.10;11.70;;;;;;;4.13;79.97;100752.06;215919;1274;139816;-64
2022/10/10 04:14:11;;;;;;;17.90;11.40;;;;;;;4.10;79.99;100750.81;215769;1274;141020;-63
2022/10/10 04:19:16;;;;;;;19.30;10.30;;;;;;;4.06;79.93;100748.17;215783;1274;141462;-66
2022/10/10 04:24:20;;;;;;;10.10;6.70;;;;;;;4.03;80.02;100741.31;215670;1274;140340;-64
2022/10/10 04:29:24;;;;;;;18.00;10.10;;;;;;;3.99;80.54;100743.13;215924;1274;139692;-63
2022/10/10 04:34:29;;;;;;;15.60;10.00;;;;;;;4.01;80.96;100736.10;215529;1276;140775;-64
2022/10/10 04:39:32;;;;;;;14.60;9.70;;;;;;;4.05;80.87;100731.75;215756;1274;140127;-63
2022/10/10 04:44:36;;;;;;;17.70;10.80;;;;;;;4.09;81.10;100735.31;215956;1274;140818;-63
2022/10/10 04:49:40;;;;;;;14.70;9.60;;;;;;;4.11;81.19;100729.73;215818;1274;139790;-63
2022/10/10 04:54:44;;;;;;;18.30;10.60;;;;;;;4.15;81.03;100729.30;215637;1274;141400;-63
2022/10/10 04:59:49;;;;;;;20.40;10.60;;;;;;;4.20;81.02;100723.29;215181;1274;141060;-63
2022/10/10 05:04:52;;;;;;;22.30;10.10;;;;;;;4.22;81.08;100722.85;214631;1274;139789;-63
2022/10/10 05:09:57;;;;;;;16.80;10.20;;;;;;;4.20;81.15;100721.17;213844;1274;140793;-62
2022/10/10 05:15:01;;;;;;;18.30;11.70;;;;;;;4.24;81.11;100715.13;215947;1274;140569;-63
2022/10/10 05:20:05;;;;;;;11.00;9.00;;;;;;;4.22;81.59;100715.00;215991;1274;140376;-63
2022/10/10 05:25:10;;;;;;;19.00;10.00;;;;;;;4.29;81.76;100711.04;214199;1274;139532;-62
2022/10/10 05:30:14;;;;;;;17.30;10.10;;;;;;;4.37;81.74;100704.84;215808;1274;140718;-63
2022/10/10 05:35:17;;;;;;;17.00;11.30;;;;;;;4.43;82.02;100710.34;215897;1273;140216;-65
2022/10/10 05:40:22;;;;;;;14.10;9.60;;;;;;;4.54;81.91;100703.54;214738;1274;140429;-64
2022/10/10 05:45:26;;;;;;;13.80;8.80;;;;;;;4.62;82.01;100702.19;214452;1274;141317;-63
2022/10/10 05:50:29;;;;;;;14.20;9.60;;;;;;;4.71;82.28;100704.83;216028;1273;141574;-62
2022/10/10 05:55:34;;;;;;;10.70;7.70;;;;;;;4.80;82.32;100703.24;215743;1273;141971;-62
2022/10/10 06:00:39;;;;;;;13.00;9.40;;;;;;;4.88;82.29;100699.39;215720;1272;140537;-61
2022/10/10 06:05:47;;;;;;;12.50;8.30;;;;;;;5.03;82.56;100700.19;215658;1274;140525;-62
2022/10/10 06:10:50;;;;;;;14.20;12.50;;;;;;;5.17;82.71;100703.34;215907;1273;141621;-64
2022/10/10 06:15:54;;;;;;;12.80;8.40;;;;;;;5.31;82.86;100704.21;215803;1273;141702;-63
2022/10/10 06:21:05;;;;;;;15.90;9.60;;;;;;;5.49;82.65;100704.14;216004;1273;140598;-63
2022/10/10 06:26:11;;;;;;;11.10;8.40;;;;;;;5.64;82.76;100697.63;215802;1273;140476;-63
2022/10/10 06:31:16;;;;;;;13.60;8.70;;;;;;;5.84;82.89;100694.76;215902;1273;142391;-62
2022/10/10 06:36:20;;;;;;;13.50;8.00;;;;;;;6.02;82.94;100690.05;215922;1273;139896;-63
2022/10/10 06:41:25;;;;;;;17.20;10.90;;;;;;;6.26;82.68;100692.95;215974;1271;140204;-63
2022/10/10 06:46:28;;;;;;;15.50;10.80;;;;;;;6.47;82.94;100690.48;215928;1274;151247;-64
2022/10/10 06:51:32;;;;;;;16.60;9.60;;;;;;;6.90;82.84;100682.11;215280;1274;141043;-63
2022/10/10 06:56:37;;;;;;;10.60;7.40;;;;;;;8.06;81.81;100674.90;215882;1274;140996;-65
2022/10/10 07:01:41;;;;;;;12.80;8.70;;;;;;;9.43;80.85;100674.25;215886;1274;141089;-65
2022/10/10 07:06:46;;;;;;;11.30;8.60;;;;;;;10.78;79.05;100678.08;215652;1274;140236;-63
2022/10/10 07:11:50;;;;;;;12.70;6.80;;;;;;;11.66;77.10;100671.61;215766;1274;141133;-63
2022/10/10 07:16:54;;;;;;;8.80;7.30;;;;;;;12.49;75.59;100664.51;215409;1274;139592;-64
2022/10/10 07:22:00;;;;;;;10.40;7.20;;;;;;;12.93;74.45;100666.69;214562;1274;139400;-65
2022/10/10 07:27:04;;;;;;;12.20;7.70;;;;;;;13.48;74.20;100661.73;215233;1274;139972;-65
2022/10/10 07:32:11;;;;;;;;;;;;;;;13.58;72.54;100661.76;215562;1274;140242;-65
2022/10/10 07:37:14;;;;;;;9.30;6.20;;;;;;;13.25;71.11;100658.84;216363;1274;128772;-65
2022/10/10 07:42:19;;;;;;;6.30;5.60;;;;;;;12.99;70.66;100659.19;215327;1272;139936;-64
2022/10/10 07:47:23;;;;;;;7.80;7.00;;;;;;;12.83;70.84;100657.05;215775;1274;140040;-64
2022/10/10 07:52:28;;;;;;;11.60;6.00;;;;;;;12.79;70.94;100653.27;215876;1274;140814;-65
2022/10/10 07:57:33;;;;;;;6.70;4.90;;;;;;;12.77;70.30;100650.09;215293;1274;142461;-65
2022/10/10 08:02:39;;;;;;;7.60;5.90;;;;;;;12.89;70.85;100647.85;216014;1274;140858;-65
2022/10/10 08:07:43;;;;;;;6.50;4.70;;;;;;;13.13;71.19;100644.02;215858;1273;141308;-64
2022/10/10 08:12:49;;;;;;;8.30;4.20;;;;;;;13.32;70.05;100639.54;215877;1273;152956;-64
2022/10/10 08:18:00;;;;;;;4.90;4.40;;;;;;;13.31;68.86;100634.37;215713;1274;141492;-64
2022/10/10 08:23:12;;;;;;;7.50;5.30;;;;;;;13.44;68.99;100633.77;215750;1274;142472;-65
2022/10/10 08:28:20;;;;;;;6.80;4.30;;;;;;;13.43;68.41;100627.70;215531;1274;140013;-66
2022/10/10 08:33:28;;;;;;;4.90;4.10;;;;;;;13.41;67.05;100624.80;215079;1274;141083;-65
2022/10/10 08:38:36;;;;;;;7.10;4.30;;;;;;;13.28;66.39;100621.88;215727;1274;140377;-65
2022/10/10 08:43:56;;;;;;;7.60;3.80;;;;;;;13.36;66.26;100622.39;215893;1274;140110;-65
2022/10/10 08:49:17;;;;;;;8.50;4.10;;;;;;;13.48;66.45;100616.40;215642;1274;140885;-65
2022/10/10 08:54:26;;;;;;;4.90;4.00;;;;;;;13.69;65.80;100614.65;215927;1274;142754;-64
2022/10/10 08:59:39;;;;;;;6.70;3.90;;;;;;;13.79;65.57;100615.93;215035;1274;139566;-64
2022/10/10 09:04:46;;;;;;;3.60;3.20;;;;;;;13.95;65.32;100613.70;215842;1274;139631;-66
2022/10/10 09:10:11;;;;;;;6.40;3.40;;;;;;;14.15;65.10;100608.02;215626;1274;142089;-66
2022/10/10 09:15:42;;;;;;;3.20;2.90;;;;;;;14.28;64.44;100607.17;215599;1274;140633;-65
2022/10/10 09:21:00;;;;;;;4.70;3.90;;;;;;;14.30;63.63;100605.29;215814;1274;139871;-65
2022/10/10 09:26:15;;;;;;;4.60;4.00;;;;;;;14.40;63.73;100596.90;215554;1274;139996;-64
2022/10/10 09:31:39;;;;;;;13.30;4.80;;;;;;;14.57;63.46;100592.32;215706;1274;141538;-64
2022/10/10 09:36:47;;;;;;;5.00;4.60;;;;;;;14.67;62.59;100582.39;214795;1274;140645;-63
2022/10/10 09:42:02;;;;;;;6.80;4.30;;;;;;;14.91;63.11;100576.00;215933;1274;139691;-64
2022/10/10 09:47:06;;;;;;;5.00;3.80;;;;;;;15.22;62.85;100569.73;215956;1273;140940;-65
2022/10/10 09:52:23;;;;;;;4.10;3.70;;;;;;;15.40;62.34;100565.88;215910;1272;139408;-65
2022/10/10 09:57:38;;;;;;;4.80;3.40;;;;;;;15.64;61.81;100558.52;215140;1274;797128;-65
2022/10/10 10:02:42;;;;;;;4.80;4.00;;;;;;;15.86;61.30;100556.33;215695;1273;141707;-64
2022/10/10 10:07:48;;;;;;;5.80;4.30;;;;;;;15.96;61.10;100557.16;214044;1274;141215;-64
2022/10/10 10:12:54;;;;;;;4.20;3.40;;;;;;;16.09;60.60;100548.94;215870;1273;141195;-64
2022/10/10 10:18:20;;;;;;;4.20;3.10;;;;;;;16.33;60.89;100546.19;215870;1274;140415;-64
2022/10/10 10:23:31;;;;;;;12.90;5.50;;;;;;;16.49;59.87;100542.80;215703;1273;140729;-65
2022/10/10 10:28:40;;;;;;;3.90;2.90;;;;;;;16.55;59.93;100534.79;215866;1273;140531;-65
2022/10/10 10:34:15;;;;;;;6.20;4.10;;;;;;;16.79;59.64;100531.05;215880;1273;140180;-64
2022/10/10 10:39:44;;;;;;;10.80;3.70;;;;;;;16.67;58.49;100526.14;215642;1274;139949;-65
2022/10/10 10:45:15;;;;;;;4.50;3.60;;;;;;;16.73;58.89;100518.57;216001;1273;141328;-65
2022/10/10 10:50:53;;;;;;;3.90;3.50;;;;;;;16.85;58.13;100509.83;215794;1273;140440;-65
2022/10/10 10:56:19;;;;;;;5.90;3.40;;;;;;;17.07;58.30;100499.88;214920;1273;140291;-66
2022/10/10 11:01:46;;;;;;;3.90;2.50;;;;;;;17.26;58.25;100491.27;214902;1273;140484;-64
2022/10/10 11:07:16;;;;;;;4.50;3.10;;;;;;;17.42;57.90;100481.88;215863;1273;140376;-64
2022/10/10 11:12:51;;;;;;;4.50;2.70;;;;;;;17.39;56.74;100473.18;215930;1273;141139;-63
2022/10/10 11:18:26;;;;;;;4.40;3.40;;;;;;;17.31;56.43;100472.33;214736;1273;139391;-64
2022/10/10 11:23:43;;;;;;;4.30;3.00;;;;;;;17.33;56.51;100467.92;215856;1273;140436;-64
2022/10/10 11:28:55;;;;;;;3.00;2.60;;;;;;;17.44;56.13;100459.89;215849;1273;140182;-64
2022/10/10 11:34:07;;;;;;;4.80;2.60;;;;;;;17.51;55.74;100451.56;215776;1274;140759;-64
2022/10/10 11:39:25;;;;;;;2.80;2.60;;;;;;;17.56;55.40;100439.52;215694;1273;140949;-66
2022/10/10 11:44:42;;;;;;;5.80;3.40;;;;;;;17.75;55.63;100431.69;215458;1273;142034;-63
2022/10/10 11:50:21;;;;;;;3.40;3.10;;;;;;;18.02;55.53;100419.55;215847;1273;140880;-64
2022/10/10 11:55:50;;;;;;;3.50;2.80;;;;;;;17.97;54.61;100411.52;215675;1273;140424;-64
2022/10/10 12:01:05;;;;;;;7.10;3.80;;;;;;;17.81;54.74;100404.30;215832;1273;141783;-64
2022/10/10 12:06:37;;;;;;;5.40;2.80;;;;;;;17.96;54.71;100396.41;215814;1273;141162;-64
2022/10/10 12:11:52;;;;;;;4.10;2.80;;;;;;;17.89;54.18;100390.89;215976;1273;139766;-64
2022/10/10 12:16:58;;;;;;;5.60;3.40;;;;;;;17.83;54.02;100381.16;215813;1273;140287;-64
2022/10/10 12:22:07;;;;;;;3.80;3.30;;;;;;;17.68;53.47;100379.23;215762;1273;141127;-64
2022/10/10 12:27:26;;;;;;;7.00;3.90;;;;;;;17.62;53.88;100373.06;215501;1273;141028;-63
2022/10/10 12:32:39;;;;;;;7.80;5.80;;;;;;;17.56;53.47;100367.42;215947;1273;140581;-64
2022/10/10 12:38:03;;;;;;;4.10;2.90;;;;;;;17.52;53.32;100363.04;215917;1273;140941;-64
2022/10/10 12:43:43;;;;;;;3.50;3.10;;;;;;;17.63;53.71;100350.86;215802;1273;139581;-63
2022/10/10 12:48:58;;;;;;;6.50;3.70;;;;;;;17.59;53.33;100334.88;215505;1274;141223;-63
2022/10/10 12:54:05;;;;;;;5.70;2.70;;;;;;;17.25;52.93;100334.13;215948;1273;139878;-64
2022/10/10 12:59:19;;;;;;;3.40;3.00;;;;;;;16.68;52.88;100325.91;215594;1273;140083;-63
2022/10/10 13:04:25;;;;;;;4.70;3.60;;;;;;;16.21;53.24;100317.78;215761;1273;139807;-63
2022/10/10 13:09:36;;;;;;;3.50;2.90;;;;;;;15.93;53.82;100311.53;215805;1273;141039;-62
2022/10/10 13:14:43;;;;;;;5.60;4.20;;;;;;;15.91;54.15;100308.71;215792;1273;141351;-64
2022/10/10 13:19:51;;;;;;;2.50;2.30;;;;;;;16.21;54.07;100303.58;215669;1273;140467;-62
2022/10/10 13:24:57;;;;;;;4.40;3.00;;;;;;;16.56;53.85;100297.57;215697;1274;139762;-63
2022/10/10 13:30:02;;;;;;;1.70;1.60;;;;;;;16.87;53.42;100285.43;215921;1272;140823;-62
2022/10/10 13:35:20;;;;;;;5.60;2.00;;;;;;;17.02;52.30;100272.67;215862;1273;140577;-63
2022/10/10 13:40:25;;;;;;;2.00;1.70;;;;;;;16.98;51.83;100264.15;215678;1273;140271;-63
2022/10/10 13:45:34;;;;;;;3.50;1.80;;;;;;;16.86;51.21;100259.31;215637;1274;139872;-63
2022/10/10 13:50:42;;;;;;;2.90;2.20;;;;;;;16.52;50.16;100262.58;214330;1274;139871;-64
2022/10/10 13:55:48;;;;;;;8.30;2.50;;;;;;;16.30;50.31;100256.02;215290;1274;139813;-63
2022/10/10 14:00:58;;;;;;;2.20;2.00;;;;;;;16.16;50.61;100253.73;215118;1274;140079;-64
2022/10/10 14:06:04;;;;;;;4.40;2.90;;;;;;;15.97;50.18;100252.73;213873;1274;140485;-64
2022/10/10 14:11:16;;;;;;;2.10;1.90;;;;;;;15.88;50.49;100250.63;214161;1274;139442;-64
2022/10/10 14:16:25;;;;;;;6.60;2.10;;;;;;;15.81;50.52;100244.02;215401;1274;140646;-64
2022/10/10 14:21:29;;;;;;;5.50;2.60;;;;;;;15.70;50.20;100235.30;215530;1274;139969;-65
2022/10/10 14:26:37;;;;;;;2.00;1.40;;;;;;;15.62;50.60;100230.67;215941;1274;140120;-65
2022/10/10 14:31:43;;;;;;;2.70;2.40;;;;;;;15.58;50.56;100220.98;215534;1274;139421;-64
2022/10/10 14:36:49;;;;;;;1.80;1.70;;;;;;;15.49;50.37;100210.98;215773;1274;139778;-63
2022/10/10 14:41:56;;;;;;;2.30;2.10;;;;;;;15.41;50.47;100210.58;215683;1274;141092;-64
2022/10/10 14:47:03;;;;;;;5.90;2.40;;;;;;;15.34;50.54;100201.73;215908;1273;139660;-64
2022/10/10 14:52:08;;;;;;;3.50;2.40;;;;;;;15.23;50.78;100198.86;215909;1273;140525;-65
2022/10/10 14:57:15;;;;;;;8.40;2.00;;;;;;;15.05;50.85;100193.30;215958;1274;140991;-64
2022/10/10 15:02:21;;;;;;;3.40;2.70;;;;;;;14.93;51.01;100194.53;215749;1273;140251;-64
2022/10/10 15:07:26;;;;;;;12.20;4.00;;;;;;;14.81;51.21;100193.04;215978;1273;140783;-63
2022/10/10 15:12:38;;;;;;;24.20;4.70;;;;;;;14.63;51.27;100186.92;215945;1273;141448;-64
2022/10/10 15:17:48;;;;;;;3.00;2.50;;;;;;;14.47;51.30;100182.16;216087;1273;140200;-64
2022/10/10 15:23:07;;;;;;;6.80;3.10;;;;;;;14.34;51.78;100182.35;215991;1273;141857;-64
2022/10/10 15:28:16;;;;;;;29.30;15.70;;;;;;;14.25;52.17;100183.42;215161;1274;140778;-62
2022/10/10 15:33:22;;;;;;;26.20;12.40;;;;;;;14.15;52.25;100181.02;216028;1273;140235;-63
2022/10/10 15:38:34;;;;;;;25.30;9.40;;;;;;;14.02;52.50;100183.14;215741;1272;140338;-64
2022/10/10 15:43:45;;;;;;;38.80;9.50;;;;;;;13.87;52.73;100172.04;215829;1272;140316;-63
2022/10/10 15:48:59;;;;;;;39.70;12.00;;;;;;;13.65;53.14;100165.98;215525;1273;140687;-63
2022/10/10 15:54:06;;;;;;;18.00;6.80;;;;;;;13.48;53.67;100164.96;216048;1273;142871;-62
2022/10/10 15:59:15;;;;;;;17.80;7.20;;;;;;;13.36;53.79;100160.90;214818;1273;141214;-63
2022/10/10 16:04:22;;;;;;;7.40;4.30;;;;;;;13.22;54.19;100159.48;215752;1273;140983;-63
2022/10/10 16:09:27;;;;;;;5.10;3.10;;;;;;;13.10;54.56;100156.95;214737;1273;140911;-62
2022/10/10 16:14:36;;;;;;;4.30;2.80;;;;;;;12.99;54.76;100154.34;214974;1272;141218;-64
2022/10/10 16:19:48;;;;;;;8.20;3.60;;;;;;;12.84;54.94;100151.45;215688;1272;140974;-64
2022/10/10 16:24:52;;;;;;;;;;;;;;;12.75;55.15;100151.86;215762;1273;141136;-64
2022/10/10 16:30:20;;;;;;;6.30;4.00;;;;;;;12.61;55.30;100148.37;214987;1273;222853;-62
2022/10/10 16:35:26;;;;;;;9.00;5.60;;;;;;;12.51;55.73;100147.27;215661;1273;141415;-63
2022/10/10 16:40:35;;;;;;;13.00;5.80;;;;;;;12.44;56.23;100147.90;215928;1273;143197;-63
2022/10/10 16:45:42;;;;;;;8.90;6.10;;;;;;;12.40;56.54;100147.54;215973;1273;140587;-63
2022/10/10 16:50:47;;;;;;;21.20;6.50;;;;;;;12.35;56.88;100145.41;215940;1273;140657;-62
2022/10/10 16:55:51;;;;;;;17.70;7.10;;;;;;;12.30;57.17;100142.88;215992;1273;141023;-62
2022/10/10 17:00:56;;;;;;;16.20;7.70;;;;;;;12.24;57.23;100133.09;215946;1273;140160;-65
2022/10/10 17:06:03;;;;;;;;;;;;;;;12.16;57.35;100131.11;216080;1273;140080;-64
2022/10/10 17:11:08;;;;;;;15.70;6.90;;;;;;;12.07;57.96;100125.03;216641;1273;126508;-63
2022/10/10 17:16:18;;;;;;;7.30;6.00;;;;;;;12.02;58.12;100127.55;215915;1273;140931;-63
2022/10/10 17:21:43;;;;;;;14.40;6.40;;;;;;;11.97;58.33;100123.69;215690;1273;139744;-65
2022/10/10 17:26:47;;;;;;;12.00;6.30;;;;;;;11.93;58.41;100123.87;215614;1274;140132;-65
2022/10/10 17:36:46;;;;;;;6.40;5.10;;;;;;;11.84;59.00;100118.39;214257;1313;659346;-66
2022/10/10 17:41:51;;;;;;;8.40;5.60;;;;;;;11.79;59.11;100114.98;214435;1277;138660;-67
2022/10/10 17:46:56;;;;;;;10.30;6.30;;;;;;;11.74;59.30;100110.08;215277;1274;511981;-65
2022/10/10 17:52:01;;;;;;;7.30;4.20;;;;;;;11.71;59.53;100118.02;214759;1274;139734;-65
2022/10/10 17:57:05;;;;;;;5.70;5.20;;;;;;;11.68;59.72;100116.06;215924;1274;142228;-66
2022/10/10 18:02:14;;;;;;;8.30;5.80;;;;;;;11.60;59.88;100107.73;215881;1274;138940;-68
2022/10/10 18:07:19;;;;;;;10.20;5.60;;;;;;;11.58;59.87;100110.14;214738;1274;139672;-66
2022/10/10 18:12:24;;;;;;;6.50;4.40;;;;;;;11.52;60.29;100110.38;215956;1274;139526;-64
2022/10/10 18:17:29;;;;;;;8.30;5.20;;;;;;;11.49;60.57;100108.10;215718;1274;138988;-65
2022/10/10 18:22:33;;;;;;;14.20;5.60;;;;;;;11.42;60.54;100101.68;216055;1274;203633;-64
2022/10/10 18:27:38;;;;;;;9.20;4.90;;;;;;;11.37;60.84;100092.60;215884;1274;140113;-64
2022/10/10 18:32:43;;;;;;;9.80;4.30;;;;;;;11.35;60.75;100093.46;215869;1274;139410;-64
2022/10/10 18:37:51;;;;;;;9.70;5.10;;;;;;;11.31;60.89;100093.85;215894;1274;139452;-63
2022/10/10 18:42:56;;;;;;;8.00;5.30;;;;;;;11.29;60.95;100094.45;215796;1274;140536;-64
2022/10/10 18:48:01;;;;;;;8.40;5.60;;;;;;;11.25;61.25;100090.04;215748;1274;139705;-64
2022/10/10 18:53:07;;;;;;;7.90;4.90;;;;;;;11.20;61.50;100086.33;215796;1274;141073;-64
2022/10/10 18:58:13;;;;;;;6.40;4.40;;;;;;;11.13;61.47;100079.73;215830;1274;139506;-65
2022/10/10 19:03:19;;;;;;;8.50;4.90;;;;;;;11.14;61.55;100081.33;215772;1274;140575;-66
2022/10/10 19:08:26;;;;;;;6.30;4.20;;;;;;;11.08;61.70;100082.48;215770;1274;139027;-65
2022/10/10 19:13:35;;;;;;;5.50;4.80;;;;;;;11.05;61.85;100080.42;216041;1274;140285;-65
2022/10/10 19:18:43;;;;;;;11.00;6.90;;;;;;;10.99;62.15;100076.42;215834;1274;141060;-66
2022/10/10 19:23:53;;;;;;;7.80;4.90;;;;;;;10.92;62.30;100069.98;215904;1274;141382;-65
2022/10/10 19:29:03;;;;;;;7.60;5.60;;;;;;;10.89;62.43;100069.62;216043;1274;139529;-65
2022/10/10 19:34:10;;;;;;;7.40;5.50;;;;;;;10.86;62.62;100071.14;215809;1274;140495;-65
2022/10/10 19:39:18;;;;;;;8.20;5.80;;;;;;;10.86;62.75;100062.27;216026;1274;140845;-64
2022/10/10 19:44:24;;;;;;;6.30;4.80;;;;;;;10.87;62.71;100061.40;216026;1274;141178;-65
2022/10/10 19:49:29;;;;;;;7.60;5.30;;;;;;;10.83;63.06;100060.06;215911;1274;139521;-65
2022/10/10 19:54:34;;;;;;;6.30;4.90;;;;;;;10.78;63.22;100055.09;216063;1274;140702;-66
2022/10/10 19:59:37;;;;;;;8.50;6.50;;;;;;;10.72;63.38;100051.89;215961;1274;140642;-66
2022/10/10 20:04:43;;;;;;;8.00;5.00;;;;;;;10.70;63.62;100052.70;215792;1274;140594;-66
2022/10/10 20:09:49;;;;;;;6.60;4.50;;;;;;;10.68;63.73;100049.84;214698;1274;139731;-66
2022/10/10 20:14:53;;;;;;;6.50;4.90;;;;;;;10.64;63.71;100051.86;215718;1274;140583;-66
2022/10/10 20:19:57;;;;;;;9.50;5.20;;;;;;;10.59;63.98;100045.90;215883;1274;140764;-66
2022/10/10 20:25:02;;;;;;;6.30;5.60;;;;;;;10.51;64.20;100045.76;213692;1274;141760;-64
2022/10/10 20:30:07;;;;;;;8.90;6.50;;;;;;;10.44;64.43;100044.08;215229;1274;140957;-65
2022/10/10 20:35:13;;;;;;;16.00;7.00;;;;;;;10.42;64.54;100048.22;214497;1274;141389;-66
2022/10/10 20:40:17;;;;;;;7.80;5.90;;;;;;;10.39;64.72;100052.70;215999;1274;140592;-64
2022/10/10 20:45:21;;;;;;;8.50;5.50;;;;;;;10.33;65.01;100047.74;215980;1274;139386;-65
2022/10/10 20:50:25;;;;;;;8.60;5.50;;;;;;;10.29;65.00;100050.98;215916;1274;139519;-66
2022/10/10 20:55:29;;;;;;;7.90;5.90;;;;;;;10.31;65.08;100044.44;215802;1274;141064;-65
2022/10/10 21:00:33;;;;;;;9.70;5.60;;;;;;;10.30;65.45;100048.63;215867;1274;140591;-65
2022/10/10 21:05:37;;;;;;;8.30;6.10;;;;;;;10.27;65.51;100050.71;216047;1274;140522;-64
2022/10/10 21:10:41;;;;;;;17.00;7.30;;;;;;;10.26;65.63;100050.58;215900;1274;140669;-64
2022/10/10 21:15:45;;;;;;;11.40;5.90;;;;;;;10.27;65.75;100047.89;216098;1274;141289;-64
2022/10/10 21:20:49;;;;;;;12.80;6.50;;;;;;;10.30;65.80;100046.42;215951;1274;141304;-64
2022/10/10 21:25:53;;;;;;;7.20;5.90;;;;;;;10.28;65.89;100042.43;215803;1274;140904;-63
2022/10/10 21:30:56;;;;;;;7.90;5.20;;;;;;;10.24;66.20;100046.70;215818;1274;139736;-64
2022/10/10 21:36:00;;;;;;;10.60;6.90;;;;;;;10.21;66.27;100044.85;215964;1274;139258;-65
2022/10/10 21:41:07;;;;;;;14.60;7.20;;;;;;;10.19;66.34;100043.64;215873;1274;141458;-65
2022/10/10 21:46:17;;;;;;;10.60;6.10;;;;;;;10.14;66.47;100046.95;215799;1274;140771;-65
2022/10/10 21:51:23;;;;;;;6.90;5.80;;;;;;;10.08;66.64;100044.21;215927;1274;140740;-65
2022/10/10 21:56:27;;;;;;;12.10;7.20;;;;;;;10.06;66.80;100041.05;215991;1274;140047;-64
2022/10/10 22:01:31;;;;;;;14.70;8.30;;;;;;;10.08;66.88;100036.63;216079;1274;141668;-64
2022/10/10 22:06:35;;;;;;;11.00;6.90;;;;;;;10.05;66.78;100032.61;215714;1274;140789;-64
2022/10/10 22:11:39;;;;;;;22.90;8.60;;;;;;;10.00;67.01;100040.88;214338;1274;141125;-67
2022/10/10 22:16:43;;;;;;;14.30;9.10;;;;;;;9.95;67.21;100040.47;215725;1273;139897;-64
2022/10/10 22:21:47;;;;;;;16.50;7.10;;;;;;;9.98;67.22;100043.69;213577;1274;140758;-63
2022/10/10 22:26:51;;;;;;;9.90;6.50;;;;;;;9.95;67.32;100040.67;215951;1274;140162;-63
2022/10/10 22:31:54;;;;;;;10.20;7.00;;;;;;;9.91;67.59;100039.75;214638;1274;139802;-63
2022/10/10 22:36:58;;;;;;;9.10;6.20;;;;;;;9.85;67.64;100038.66;212606;1274;141752;-64
2022/10/10 22:42:02;;;;;;;12.40;7.80;;;;;;;9.79;67.98;100039.96;216198;1274;140943;-65
2022/10/10 22:47:06;;;;;;;9.70;6.50;;;;;;;9.79;68.03;100040.86;215207;1274;140975;-63
2022/10/10 22:52:56;;;;;;;6.90;6.20;;;;;;;9.77;68.25;100037.71;215999;1274;139169;-64
2022/10/10 22:58:00;;;;;;;10.00;7.10;;;;;;;9.73;68.35;100042.23;215375;1274;140904;-65
2022/10/10 23:03:03;;;;;;;15.00;9.60;;;;;;;9.71;68.67;100040.38;216073;1274;140033;-64
2022/10/10 23:08:07;;;;;;;12.40;8.00;;;;;;;9.70;68.66;100044.37;215975;1274;140282;-64
2022/10/10 23:13:11;;;;;;;16.70;10.00;;;;;;;9.73;68.86;100043.73;215704;1274;141291;-63
2022/10/10 23:18:15;;;;;;;10.70;7.10;;;;;;;9.71;68.89;100053.05;216081;1274;139950;-63
2022/10/10 23:23:18;;;;;;;13.00;7.00;;;;;;;9.62;68.91;100052.19;215835;1274;139861;-64